createdAt,value
2022-09-28T00:00:59.684Z,9.42
2022-09-28T00:04:02.733Z,9.43
2022-09-28T00:07:05.354Z,9.35
2022-09-28T00:10:08.521Z,9.38
2022-09-28T00:13:11.121Z,9.33
2022-09-28T00:16:16.937Z,9.33
2022-09-28T00:19:19.718Z,9.35
2022-09-28T00:22:22.483Z,9.24
2022-09-28T00:25:25.162Z,9.16
2022-09-28T00:28:28.287Z,9.12
2022-09-28T00:31:32.995Z,8.89
2022-09-28T00:34:40.705Z,8.86
2022-09-28T00:37:43.302Z,8.86
2022-09-28T00:40:46.306Z,8.86
2022-09-28T00:43:48.941Z,8.81
2022-09-28T00:47:08.492Z,8.89
2022-09-28T00:50:14.754Z,8.96
2022-09-28T00:53:25.974Z,9.02
2022-09-28T00:56:32.372Z,9.18
2022-09-28T00:59:35.401Z,9.22
2022-09-28T01:02:38.101Z,9.19
2022-09-28T01:05:41.712Z,9.14
2022-09-28T01:08:45.913Z,8.99
2022-09-28T01:11:48.947Z,9.07
2022-09-28T01:14:52.804Z,9.04
2022-09-28T01:18:32.325Z,8.98
2022-09-28T01:21:56.186Z,8.93
2022-09-28T01:25:13.202Z,8.83
2022-09-28T01:28:19.274Z,8.72
2022-09-28T01:31:31.319Z,8.96
2022-09-28T01:34:48.345Z,8.95
2022-09-28T01:38:02.851Z,8.88
2022-09-28T01:41:06.986Z,8.84
2022-09-28T01:44:14.907Z,8.76
2022-09-28T01:47:21.361Z,8.84
2022-09-28T01:50:27.804Z,8.81
2022-09-28T01:53:39.523Z,8.78
2022-09-28T01:56:51.935Z,8.76
2022-09-28T02:00:03.428Z,8.78
2022-09-28T02:03:24.437Z,8.76
2022-09-28T02:06:36.331Z,8.74
2022-09-28T02:09:42.835Z,8.70
2022-09-28T02:12:54.662Z,8.67
2022-09-28T02:16:06.488Z,8.61
2022-09-28T02:19:21.074Z,8.58
2022-09-28T02:22:33.820Z,8.52
2022-09-28T02:25:45.753Z,8.50
2022-09-28T02:28:48.496Z,8.46
2022-09-28T02:31:52.191Z,8.37
2022-09-28T02:34:55.865Z,8.41
2022-09-28T02:37:58.755Z,8.26
2022-09-28T02:41:08.912Z,8.32
2022-09-28T02:44:40.581Z,8.31
2022-09-28T02:48:31.355Z,8.29
2022-09-28T02:51:54.342Z,8.27
2022-09-28T02:55:09.132Z,8.24
2022-09-28T02:58:20.953Z,8.18
2022-09-28T03:01:35.558Z,8.31
2022-09-28T03:05:19.404Z,8.35
2022-09-28T03:08:30.504Z,8.42
2022-09-28T03:11:41.971Z,8.50
2022-09-28T03:14:45.670Z,8.53
2022-09-28T03:17:49.593Z,8.52
2022-09-28T03:20:52.422Z,8.52
2022-09-28T03:23:55.899Z,8.49
2022-09-28T03:26:58.555Z,8.39
2022-09-28T03:30:01.708Z,8.41
2022-09-28T03:33:05.433Z,8.30
2022-09-28T03:36:09.682Z,8.39
2022-09-28T03:39:13.316Z,8.38
2022-09-28T03:42:16.250Z,8.38
2022-09-28T03:45:19.886Z,8.36
2022-09-28T03:48:34.454Z,8.28
2022-09-28T03:51:37.067Z,8.24
2022-09-28T03:54:40.029Z,8.09
2022-09-28T03:57:42.724Z,8.13
2022-09-28T04:00:45.769Z,8.07
2022-09-28T04:03:55.101Z,8.00
2022-09-28T04:07:00.965Z,8.06
2022-09-28T04:10:04.039Z,8.01
2022-09-28T04:13:06.884Z,7.92
2022-09-28T04:16:10.704Z,7.80
2022-09-28T04:19:14.233Z,7.75
2022-09-28T04:22:19.150Z,7.75
2022-09-28T04:25:21.790Z,7.62
2022-09-28T04:28:43.744Z,7.60
2022-09-28T04:31:49.707Z,7.45
2022-09-28T04:34:52.902Z,7.36
2022-09-28T04:37:55.573Z,7.25
2022-09-28T04:40:58.842Z,7.15
2022-09-28T04:44:01.993Z,7.08
2022-09-28T04:47:05.446Z,7.12
2022-09-28T04:50:09.305Z,7.13
2022-09-28T04:53:12.163Z,7.24
2022-09-28T04:56:16.527Z,7.41
2022-09-28T04:59:19.443Z,7.52
2022-09-28T05:02:22.174Z,7.51
2022-09-28T05:05:25.579Z,7.48
2022-09-28T05:08:30.230Z,7.51
2022-09-28T05:11:33.490Z,7.57
2022-09-28T05:14:36.317Z,7.65
2022-09-28T05:17:39.688Z,7.79
2022-09-28T05:20:42.458Z,7.95
2022-09-28T05:23:47.513Z,8.08
2022-09-28T05:26:50.271Z,8.11
2022-09-28T05:29:53.149Z,8.47
2022-09-28T05:32:56.958Z,8.86
2022-09-28T05:36:01.870Z,9.32
2022-09-28T05:39:05.295Z,9.61
2022-09-28T05:42:08.356Z,9.77
2022-09-28T05:45:11.076Z,10.44
2022-09-28T05:48:15.059Z,10.66
2022-09-28T05:51:17.906Z,11.50
2022-09-28T05:54:20.930Z,12.29
2022-09-28T05:57:23.639Z,12.42
2022-09-28T06:00:28.430Z,12.69
2022-09-28T06:03:31.494Z,12.62
2022-09-28T06:06:35.775Z,12.24
2022-09-28T06:09:38.638Z,11.87
2022-09-28T06:12:41.397Z,11.93
2022-09-28T06:15:46.385Z,11.80
2022-09-28T06:18:49.947Z,11.58
2022-09-28T06:21:54.205Z,11.41
2022-09-28T06:24:56.836Z,11.31
2022-09-28T06:28:06.346Z,11.31
2022-09-28T06:31:09.014Z,11.36
2022-09-28T06:34:16.092Z,11.36
2022-09-28T06:37:19.925Z,11.54
2022-09-28T06:40:23.548Z,12.42
2022-09-28T06:43:29.848Z,13.44
2022-09-28T06:46:40.186Z,13.76
2022-09-28T06:49:46.096Z,14.48
2022-09-28T06:52:55.263Z,15.26
2022-09-28T06:55:58.749Z,15.31
2022-09-28T06:59:01.784Z,14.41
2022-09-28T07:02:04.993Z,14.02
2022-09-28T07:05:12.465Z,13.99
2022-09-28T07:08:15.999Z,16.02
2022-09-28T07:11:20.440Z,17.46
2022-09-28T07:14:40.113Z,18.12
2022-09-28T07:17:59.259Z,18.50
2022-09-28T07:21:09.297Z,18.82
2022-09-28T07:24:14.395Z,17.40
2022-09-28T07:27:19.163Z,18.67
2022-09-28T07:30:22.400Z,19.53
2022-09-28T07:33:32.849Z,19.94
2022-09-28T07:36:36.406Z,20.25
2022-09-28T07:40:05.927Z,19.30
2022-09-28T07:43:09.073Z,18.98
2022-09-28T07:46:12.386Z,19.45
2022-09-28T07:49:16.818Z,18.50
2022-09-28T07:52:24.878Z,19.23
2022-09-28T07:55:30.542Z,19.13
2022-09-28T07:58:35.707Z,18.00
2022-09-28T08:01:40.404Z,18.34
2022-09-28T08:04:43.874Z,18.92
2022-09-28T08:07:46.435Z,19.03
2022-09-28T08:10:52.512Z,18.69
2022-09-28T08:13:56.754Z,18.58
2022-09-28T08:17:03.599Z,19.12
2022-09-28T08:20:25.657Z,19.21
2022-09-28T08:23:28.527Z,17.13
2022-09-28T08:26:31.882Z,17.48
2022-09-28T08:29:34.881Z,18.13
2022-09-28T08:32:38.209Z,18.03
2022-09-28T08:35:42.634Z,18.49
2022-09-28T08:38:45.344Z,18.49
2022-09-28T08:41:59.929Z,17.97
2022-09-28T08:45:27.491Z,18.37
2022-09-28T08:48:51.780Z,18.24
2022-09-28T08:52:16.349Z,17.53
2022-09-28T08:55:32.690Z,17.48
2022-09-28T08:58:39.698Z,17.65
2022-09-28T09:01:50.478Z,17.15
2022-09-28T09:04:53.709Z,16.13
2022-09-28T09:08:15.608Z,16.72
2022-09-28T09:11:48.852Z,17.30
2022-09-28T09:15:22.784Z,17.74
2022-09-28T09:18:43.017Z,17.36
2022-09-28T09:22:01.615Z,17.16
2022-09-28T09:25:20.370Z,17.45
2022-09-28T09:28:43.735Z,17.00
2022-09-28T09:31:59.620Z,16.01
2022-09-28T09:35:22.679Z,16.04
2022-09-28T09:38:34.071Z,15.89
2022-09-28T09:41:49.361Z,15.26
2022-09-28T09:45:10.945Z,16.01
2022-09-28T09:48:22.514Z,16.21
2022-09-28T09:51:41.624Z,16.24
2022-09-28T09:55:07.944Z,16.47
2022-09-28T09:58:18.733Z,16.95
2022-09-28T10:01:39.181Z,17.26
2022-09-28T10:04:48.289Z,16.90
2022-09-28T10:08:10.927Z,16.42
2022-09-28T10:11:29.514Z,16.78
2022-09-28T10:14:32.171Z,16.67
2022-09-28T10:17:37.381Z,16.77
2022-09-28T10:20:49.799Z,16.76
2022-09-28T10:24:02.662Z,17.19
2022-09-28T10:27:20.497Z,16.83
2022-09-28T10:30:25.433Z,16.65
2022-09-28T10:33:33.299Z,16.46
2022-09-28T10:36:50.117Z,16.71
2022-09-28T10:39:56.010Z,17.26
2022-09-28T10:43:07.860Z,17.48
2022-09-28T10:46:21.787Z,17.63
2022-09-28T10:49:27.222Z,17.98
2022-09-28T10:52:33.651Z,18.01
2022-09-28T10:55:41.971Z,17.85
2022-09-28T10:58:45.545Z,17.32
2022-09-28T11:01:54.107Z,17.12
2022-09-28T11:04:59.803Z,17.02
2022-09-28T11:08:07.621Z,16.90
2022-09-28T11:11:16.977Z,17.13
2022-09-28T11:14:38.400Z,17.20
2022-09-28T11:17:45.483Z,17.23
2022-09-28T11:20:49.582Z,17.03
2022-09-28T11:24:19.348Z,16.97
2022-09-28T11:27:25.449Z,17.07
2022-09-28T11:30:38.656Z,17.06
2022-09-28T11:33:46.819Z,17.12
2022-09-28T11:36:58.426Z,16.25
2022-09-28T11:40:29.451Z,16.45
2022-09-28T11:43:41.309Z,16.42
2022-09-28T11:46:52.050Z,16.48
2022-09-28T11:50:23.559Z,16.56
2022-09-28T11:53:56.941Z,16.86
2022-09-28T11:57:03.313Z,16.85
2022-09-28T12:00:19.962Z,17.00
2022-09-28T12:03:42.698Z,16.98
2022-09-28T12:07:11.627Z,16.99
2022-09-28T12:10:38.751Z,17.12
2022-09-28T12:13:48.126Z,16.78
2022-09-28T12:17:06.217Z,16.87
2022-09-28T12:20:20.729Z,16.86
2022-09-28T12:23:36.840Z,16.73
2022-09-28T12:26:48.671Z,16.45
2022-09-28T12:30:13.769Z,16.28
2022-09-28T12:33:16.864Z,16.50
2022-09-28T12:36:28.530Z,16.62
2022-09-28T12:39:58.138Z,17.00
2022-09-28T12:43:10.331Z,17.44
2022-09-28T12:46:28.529Z,17.46
2022-09-28T12:53:14.122Z,17.87
2022-09-28T12:56:41.758Z,17.63
2022-09-28T12:59:47.387Z,17.85
2022-09-28T13:03:00.161Z,18.06
2022-09-28T13:06:05.657Z,17.99
2022-09-28T13:09:24.030Z,17.62
2022-09-28T13:12:53.025Z,17.42
2022-09-28T13:16:02.966Z,17.23
2022-09-28T13:19:19.075Z,17.11
2022-09-28T13:22:44.417Z,17.03
2022-09-28T13:25:59.222Z,17.08
2022-09-28T13:29:11.122Z,17.21
2022-09-28T13:32:14.079Z,17.23
2022-09-28T13:35:21.909Z,17.18
2022-09-28T13:38:25.445Z,17.20
2022-09-28T13:41:50.876Z,17.14
2022-09-28T13:45:15.989Z,17.07
2022-09-28T13:48:24.714Z,17.05
2022-09-28T13:51:45.905Z,17.17
2022-09-28T13:54:51.553Z,17.02
2022-09-28T13:58:15.824Z,16.98
2022-09-28T14:01:23.363Z,17.02
2022-09-28T14:04:53.122Z,16.97
2022-09-28T14:08:33.607Z,17.03
2022-09-28T14:11:36.777Z,16.94
2022-09-28T14:14:50.786Z,16.96
2022-09-28T14:18:08.467Z,17.08
2022-09-28T14:21:41.594Z,17.39
2022-09-28T14:24:59.258Z,17.30
2022-09-28T14:28:23.341Z,17.34
2022-09-28T14:31:28.917Z,17.46
2022-09-28T14:34:34.307Z,17.37
2022-09-28T14:37:58.775Z,17.26
2022-09-28T14:41:10.259Z,17.27
2022-09-28T14:44:18.014Z,17.16
2022-09-28T14:47:43.839Z,17.11
2022-09-28T14:50:47.762Z,17.22
2022-09-28T14:53:51.874Z,17.22
2022-09-28T14:56:57.451Z,17.16
2022-09-28T15:00:07.664Z,17.11
2022-09-28T15:03:12.567Z,17.03
2022-09-28T15:06:16.617Z,16.94
2022-09-28T15:09:36.970Z,16.95
2022-09-28T15:12:43.795Z,16.90
2022-09-28T15:15:50.555Z,16.77
2022-09-28T15:19:13.414Z,16.79
2022-09-28T15:22:17.414Z,16.72
2022-09-28T15:25:22.361Z,16.69
2022-09-28T15:28:25.435Z,16.64
2022-09-28T15:31:34.091Z,16.58
2022-09-28T15:34:52.786Z,16.53
2022-09-28T15:37:55.660Z,16.47
2022-09-28T15:41:00.390Z,16.45
2022-09-28T15:44:15.197Z,16.41
2022-09-28T15:47:27.191Z,16.39
2022-09-28T15:50:30.079Z,16.31
2022-09-28T15:53:33.781Z,16.30
2022-09-28T15:56:54.891Z,16.35
2022-09-28T15:59:59.243Z,16.29
2022-09-28T16:03:22.059Z,16.26
2022-09-28T16:06:24.989Z,16.21
2022-09-28T16:09:32.624Z,16.20
2022-09-28T16:12:37.399Z,16.12
2022-09-28T16:15:40.077Z,16.06
2022-09-28T16:18:48.606Z,16.01
2022-09-28T16:22:03.967Z,15.95
2022-09-28T16:25:16.348Z,15.89
2022-09-28T16:28:45.860Z,15.78
2022-09-28T16:31:52.753Z,15.70
2022-09-28T16:35:13.494Z,15.68
2022-09-28T16:38:17.990Z,15.68
2022-09-28T16:41:24.463Z,15.63
2022-09-28T16:44:30.702Z,15.58
2022-09-28T16:47:34.628Z,15.54
2022-09-28T16:50:37.570Z,15.45
2022-09-28T16:53:58.853Z,15.41
2022-09-28T16:57:03.257Z,15.35
2022-09-28T17:00:06.487Z,15.30
2022-09-28T17:03:15.034Z,15.28
2022-09-28T17:06:19.337Z,15.25
2022-09-28T17:09:23.017Z,15.21
2022-09-28T17:12:28.887Z,15.15
2022-09-28T17:15:32.024Z,15.09
2022-09-28T17:18:37.867Z,15.01
2022-09-28T17:21:49.831Z,14.93
2022-09-28T17:24:52.406Z,14.76
2022-09-28T17:27:58.233Z,14.51
2022-09-28T17:31:01.817Z,14.48
2022-09-28T17:34:04.862Z,14.38
2022-09-28T17:37:09.257Z,14.24
2022-09-28T17:40:21.604Z,14.18
2022-09-28T17:43:24.202Z,14.09
2022-09-28T17:46:30.053Z,13.96
2022-09-28T17:49:32.695Z,13.98
2022-09-28T17:52:35.739Z,13.86
2022-09-28T17:55:39.715Z,13.82
2022-09-28T17:58:42.618Z,13.77
2022-09-28T18:01:45.289Z,13.75
2022-09-28T18:04:52.083Z,13.71
2022-09-28T18:07:55.218Z,13.69
2022-09-28T18:10:58.817Z,13.63
2022-09-28T18:14:01.584Z,13.61
2022-09-28T18:17:04.590Z,13.53
2022-09-28T18:20:10.130Z,13.52
2022-09-28T18:23:13.237Z,13.41
2022-09-28T18:26:16.829Z,13.43
2022-09-28T18:29:20.108Z,13.41
2022-09-28T18:32:23.685Z,13.33
2022-09-28T18:35:26.733Z,13.36
2022-09-28T18:38:29.512Z,13.33
2022-09-28T18:41:32.735Z,13.25
2022-09-28T18:44:35.388Z,13.27
2022-09-28T18:47:39.990Z,13.24
2022-09-28T18:50:43.083Z,13.21
2022-09-28T18:53:46.554Z,13.18
2022-09-28T18:56:51.289Z,13.18
2022-09-28T18:59:54.694Z,13.13
2022-09-28T19:02:57.384Z,13.11
2022-09-28T19:06:00.626Z,13.10
2022-09-28T19:09:03.529Z,13.07
2022-09-28T19:12:06.432Z,13.04
2022-09-28T19:15:12.902Z,13.01
2022-09-28T19:18:15.900Z,12.92
2022-09-28T19:21:19.030Z,12.92
2022-09-28T19:24:22.041Z,12.92
2022-09-28T19:27:24.645Z,12.95
2022-09-28T19:30:27.562Z,12.95
2022-09-28T19:33:30.327Z,12.92
2022-09-28T19:36:33.453Z,12.90
2022-09-28T19:39:36.116Z,12.87
2022-09-28T19:42:39.637Z,12.85
2022-09-28T19:45:42.813Z,12.89
2022-09-28T19:48:45.696Z,13.01
2022-09-28T19:52:11.619Z,13.17
2022-09-28T19:55:13.752Z,13.24
2022-09-28T19:58:16.302Z,13.33
2022-09-28T20:01:19.287Z,13.38
2022-09-28T20:04:23.224Z,13.29
2022-09-28T20:07:25.868Z,13.34
2022-09-28T20:10:28.792Z,13.34
2022-09-28T20:13:33.887Z,13.24
2022-09-28T20:16:37.053Z,13.33
2022-09-28T20:19:39.657Z,13.32
2022-09-28T20:22:43.786Z,13.27
2022-09-28T20:25:46.387Z,13.24
2022-09-28T20:28:49.486Z,13.32
2022-09-28T20:31:52.290Z,13.17
2022-09-28T20:34:55.086Z,13.06
2022-09-28T20:37:58.487Z,13.07
2022-09-28T20:41:01.789Z,12.96
2022-09-28T20:44:06.341Z,12.84
2022-09-28T20:47:09.551Z,12.82
2022-09-28T20:50:12.373Z,12.80
2022-09-28T20:53:15.190Z,12.83
2022-09-28T20:56:26.722Z,12.89
2022-09-28T20:59:31.177Z,12.97
2022-09-28T21:02:33.910Z,12.95
2022-09-28T21:05:36.854Z,13.07
2022-09-28T21:08:39.619Z,13.20
2022-09-28T21:11:43.052Z,13.23
2022-09-28T21:14:45.869Z,13.14
2022-09-28T21:17:48.754Z,13.02
2022-09-28T21:20:51.722Z,13.09
2022-09-28T21:23:55.765Z,13.01
2022-09-28T21:26:59.462Z,13.09
2022-09-28T21:30:02.319Z,13.19
2022-09-28T21:33:05.152Z,13.27
2022-09-28T21:36:08.425Z,13.41
2022-09-28T21:39:11.054Z,13.47
2022-09-28T21:42:13.871Z,13.52
2022-09-28T21:45:17.396Z,13.50
2022-09-28T21:48:21.993Z,13.52
2022-09-28T21:51:25.341Z,13.50
2022-09-28T21:54:28.943Z,13.49
2022-09-28T21:57:31.482Z,13.55
2022-09-28T22:00:34.558Z,13.59
